sensor_id;sensor_type;location;lat;lon;timestamp;P1;durP1;ratioP1;P2;durP2;ratioP2
1523;SDS011;755;53.658;10.118;2023-03-01T00:07:53;25.08;;;10.25;;
1523;SDS011;755;53.658;10.118;2023-03-01T00:17:55;29.17;;;10.82;;
1523;SDS011;755;53.658;10.118;2023-03-01T00:27:58;27.25;;;10.18;;
1523;SDS011;755;53.658;10.118;2023-03-01T00:38:01;21.17;;;9.70;;
1523;SDS011;755;53.658;10.118;2023-03-01T00:48:05;22.27;;;9.48;;
1523;SDS011;755;53.658;10.118;2023-03-01T00:58:07;20.05;;;7.78;;
1523;SDS011;755;53.658;10.118;2023-03-01T01:08:11;24.63;;;9.45;;
1523;SDS011;755;53.658;10.118;2023-03-01T01:18:13;22.45;;;8.15;;
1523;SDS011;755;53.658;10.118;2023-03-01T01:28:17;19.58;;;8.70;;
1523;SDS011;755;53.658;10.118;2023-03-01T01:38:20;26.02;;;8.63;;
1523;SDS011;755;53.658;10.118;2023-03-01T01:48:24;17.50;;;7.93;;
1523;SDS011;755;53.658;10.118;2023-03-01T01:58:40;21.40;;;7.55;;
1523;SDS011;755;53.658;10.118;2023-03-01T02:08:46;23.75;;;8.73;;
1523;SDS011;755;53.658;10.118;2023-03-01T02:19:13;19.55;;;7.50;;
1523;SDS011;755;53.658;10.118;2023-03-01T02:29:25;21.63;;;7.82;;
1523;SDS011;755;53.658;10.118;2023-03-01T02:39:30;15.80;;;6.90;;
1523;SDS011;755;53.658;10.118;2023-03-01T02:49:37;20.02;;;7.75;;
1523;SDS011;755;53.658;10.118;2023-03-01T02:59:39;18.52;;;8.15;;
1523;SDS011;755;53.658;10.118;2023-03-01T03:09:44;20.50;;;8.38;;
1523;SDS011;755;53.658;10.118;2023-03-01T03:19:46;18.30;;;7.55;;
1523;SDS011;755;53.658;10.118;2023-03-01T03:29:52;21.73;;;8.90;;
1523;SDS011;755;53.658;10.118;2023-03-01T03:40:03;25.70;;;10.20;;
1523;SDS011;755;53.658;10.118;2023-03-01T03:50:17;22.98;;;9.48;;
1523;SDS011;755;53.658;10.118;2023-03-01T04:00:20;26.42;;;9.30;;
1523;SDS011;755;53.658;10.118;2023-03-01T04:10:25;32.42;;;10.32;;
1523;SDS011;755;53.658;10.118;2023-03-01T04:30:37;25.52;;;9.80;;
1523;SDS011;755;53.658;10.118;2023-03-01T04:40:45;22.50;;;8.45;;
1523;SDS011;755;53.658;10.118;2023-03-01T04:50:55;30.50;;;9.30;;
1523;SDS011;755;53.658;10.118;2023-03-01T05:01:07;26.55;;;9.55;;
1523;SDS011;755;53.658;10.118;2023-03-01T05:11:24;28.40;;;10.82;;
1523;SDS011;755;53.658;10.118;2023-03-01T05:21:33;23.70;;;9.38;;
1523;SDS011;755;53.658;10.118;2023-03-01T05:32:01;28.23;;;9.33;;
1523;SDS011;755;53.658;10.118;2023-03-01T05:42:11;18.73;;;8.60;;
1523;SDS011;755;53.658;10.118;2023-03-01T05:52:17;24.17;;;8.32;;
1523;SDS011;755;53.658;10.118;2023-03-01T06:02:24;24.58;;;8.10;;
1523;SDS011;755;53.658;10.118;2023-03-01T06:12:34;15.88;;;6.90;;
1523;SDS011;755;53.658;10.118;2023-03-01T06:22:46;20.15;;;7.78;;
1523;SDS011;755;53.658;10.118;2023-03-01T06:32:53;21.13;;;7.90;;
1523;SDS011;755;53.658;10.118;2023-03-01T06:43:09;20.42;;;7.10;;
1523;SDS011;755;53.658;10.118;2023-03-01T06:53:17;20.20;;;8.93;;
1523;SDS011;755;53.658;10.118;2023-03-01T07:03:25;20.73;;;7.88;;
1523;SDS011;755;53.658;10.118;2023-03-01T07:13:35;20.73;;;8.65;;
1523;SDS011;755;53.658;10.118;2023-03-01T07:23:41;17.55;;;8.73;;
1523;SDS011;755;53.658;10.118;2023-03-01T07:33:52;20.45;;;9.40;;
1523;SDS011;755;53.658;10.118;2023-03-01T07:43:58;22.98;;;10.43;;
1523;SDS011;755;53.658;10.118;2023-03-01T07:54:04;24.05;;;10.98;;
1523;SDS011;755;53.658;10.118;2023-03-01T08:04:09;26.73;;;11.75;;
1523;SDS011;755;53.658;10.118;2023-03-01T08:14:15;25.45;;;12.20;;
1523;SDS011;755;53.658;10.118;2023-03-01T08:24:19;27.53;;;12.77;;
1523;SDS011;755;53.658;10.118;2023-03-01T08:34:24;25.05;;;11.45;;
1523;SDS011;755;53.658;10.118;2023-03-01T08:44:27;25.15;;;12.23;;
1523;SDS011;755;53.658;10.118;2023-03-01T08:54:30;27.30;;;12.45;;
1523;SDS011;755;53.658;10.118;2023-03-01T09:04:32;27.00;;;12.68;;
1523;SDS011;755;53.658;10.118;2023-03-01T09:14:36;32.47;;;11.98;;
1523;SDS011;755;53.658;10.118;2023-03-01T09:24:39;28.20;;;13.38;;
1523;SDS011;755;53.658;10.118;2023-03-01T09:34:42;28.70;;;12.25;;
1523;SDS011;755;53.658;10.118;2023-03-01T09:45:05;25.25;;;11.85;;
1523;SDS011;755;53.658;10.118;2023-03-01T09:55:13;22.55;;;10.70;;
1523;SDS011;755;53.658;10.118;2023-03-01T10:05:29;21.67;;;10.30;;
1523;SDS011;755;53.658;10.118;2023-03-01T10:15:41;24.00;;;8.80;;
1523;SDS011;755;53.658;10.118;2023-03-01T10:25:56;20.27;;;9.90;;
1523;SDS011;755;53.658;10.118;2023-03-01T10:36:09;24.98;;;11.43;;
1523;SDS011;755;53.658;10.118;2023-03-01T10:46:21;26.95;;;11.48;;
1523;SDS011;755;53.658;10.118;2023-03-01T10:56:27;30.67;;;10.00;;
1523;SDS011;755;53.658;10.118;2023-03-01T11:06:31;18.30;;;10.05;;
1523;SDS011;755;53.658;10.118;2023-03-01T11:16:36;21.88;;;6.90;;
1523;SDS011;755;53.658;10.118;2023-03-01T11:26:40;12.13;;;4.25;;
1523;SDS011;755;53.658;10.118;2023-03-01T11:36:48;12.73;;;5.15;;
1523;SDS011;755;53.658;10.118;2023-03-01T11:47:05;11.55;;;5.18;;
1523;SDS011;755;53.658;10.118;2023-03-01T11:57:16;9.57;;;3.75;;
1523;SDS011;755;53.658;10.118;2023-03-01T12:07:29;7.38;;;3.90;;
1523;SDS011;755;53.658;10.118;2023-03-01T12:17:47;15.02;;;4.55;;
1523;SDS011;755;53.658;10.118;2023-03-01T12:28:20;13.35;;;4.05;;
1523;SDS011;755;53.658;10.118;2023-03-01T12:49:07;6.68;;;3.40;;
1523;SDS011;755;53.658;10.118;2023-03-01T12:59:15;8.85;;;4.20;;
1523;SDS011;755;53.658;10.118;2023-03-01T13:09:24;9.52;;;4.10;;
1523;SDS011;755;53.658;10.118;2023-03-01T13:19:31;7.07;;;3.13;;
1523;SDS011;755;53.658;10.118;2023-03-01T13:29:44;8.05;;;3.85;;
1523;SDS011;755;53.658;10.118;2023-03-01T13:39:47;9.27;;;4.60;;
1523;SDS011;755;53.658;10.118;2023-03-01T13:49:52;9.13;;;4.97;;
1523;SDS011;755;53.658;10.118;2023-03-01T13:59:57;12.43;;;5.57;;
1523;SDS011;755;53.658;10.118;2023-03-01T14:10:01;10.15;;;5.85;;
1523;SDS011;755;53.658;10.118;2023-03-01T14:20:09;9.23;;;5.15;;
1523;SDS011;755;53.658;10.118;2023-03-01T14:40:53;6.15;;;3.58;;
1523;SDS011;755;53.658;10.118;2023-03-01T14:50:59;6.45;;;3.90;;
1523;SDS011;755;53.658;10.118;2023-03-01T15:01:02;8.18;;;4.13;;
1523;SDS011;755;53.658;10.118;2023-03-01T15:11:17;11.05;;;5.10;;
1523;SDS011;755;53.658;10.118;2023-03-01T15:21:25;8.35;;;4.13;;
1523;SDS011;755;53.658;10.118;2023-03-01T15:31:31;9.93;;;4.75;;
1523;SDS011;755;53.658;10.118;2023-03-01T15:41:37;14.57;;;7.20;;
1523;SDS011;755;53.658;10.118;2023-03-01T15:51:49;16.02;;;7.20;;
1523;SDS011;755;53.658;10.118;2023-03-01T16:01:52;14.88;;;7.18;;
1523;SDS011;755;53.658;10.118;2023-03-01T16:11:56;21.38;;;10.80;;
1523;SDS011;755;53.658;10.118;2023-03-01T16:22:00;15.98;;;7.43;;
1523;SDS011;755;53.658;10.118;2023-03-01T16:32:07;10.55;;;5.13;;
1523;SDS011;755;53.658;10.118;2023-03-01T16:42:09;11.63;;;3.78;;
1523;SDS011;755;53.658;10.118;2023-03-01T16:52:12;9.35;;;4.78;;
1523;SDS011;755;53.658;10.118;2023-03-01T17:02:14;10.23;;;5.60;;
1523;SDS011;755;53.658;10.118;2023-03-01T17:12:20;12.10;;;6.13;;
1523;SDS011;755;53.658;10.118;2023-03-01T17:22:22;14.68;;;7.53;;
1523;SDS011;755;53.658;10.118;2023-03-01T17:32:26;17.02;;;7.95;;
1523;SDS011;755;53.658;10.118;2023-03-01T17:42:28;20.13;;;9.68;;
1523;SDS011;755;53.658;10.118;2023-03-01T17:52:31;23.30;;;10.95;;
1523;SDS011;755;53.658;10.118;2023-03-01T18:02:34;27.85;;;12.20;;
1523;SDS011;755;53.658;10.118;2023-03-01T18:12:37;36.83;;;13.45;;
1523;SDS011;755;53.658;10.118;2023-03-01T18:22:39;32.35;;;14.43;;
1523;SDS011;755;53.658;10.118;2023-03-01T18:32:43;34.83;;;15.60;;
1523;SDS011;755;53.658;10.118;2023-03-01T18:42:45;36.88;;;15.07;;
1523;SDS011;755;53.658;10.118;2023-03-01T18:52:48;36.28;;;15.75;;
1523;SDS011;755;53.658;10.118;2023-03-01T19:02:50;42.72;;;17.63;;
1523;SDS011;755;53.658;10.118;2023-03-01T19:12:53;34.78;;;16.92;;
1523;SDS011;755;53.658;10.118;2023-03-01T19:22:55;36.35;;;16.20;;
1523;SDS011;755;53.658;10.118;2023-03-01T19:32:59;44.30;;;18.10;;
1523;SDS011;755;53.658;10.118;2023-03-01T19:43:01;38.15;;;16.80;;
1523;SDS011;755;53.658;10.118;2023-03-01T19:53:04;39.05;;;17.48;;
1523;SDS011;755;53.658;10.118;2023-03-01T20:03:06;38.97;;;17.60;;
1523;SDS011;755;53.658;10.118;2023-03-01T20:13:09;39.67;;;18.05;;
1523;SDS011;755;53.658;10.118;2023-03-01T20:23:11;49.95;;;18.40;;
1523;SDS011;755;53.658;10.118;2023-03-01T20:33:14;44.15;;;18.77;;
1523;SDS011;755;53.658;10.118;2023-03-01T20:43:16;39.50;;;17.45;;
1523;SDS011;755;53.658;10.118;2023-03-01T20:53:19;42.15;;;19.67;;
1523;SDS011;755;53.658;10.118;2023-03-01T21:03:21;49.90;;;18.63;;
1523;SDS011;755;53.658;10.118;2023-03-01T21:13:25;48.85;;;19.65;;
1523;SDS011;755;53.658;10.118;2023-03-01T21:23:28;47.55;;;18.05;;
1523;SDS011;755;53.658;10.118;2023-03-01T21:33:33;47.65;;;17.65;;
1523;SDS011;755;53.658;10.118;2023-03-01T21:43:36;56.35;;;17.77;;
1523;SDS011;755;53.658;10.118;2023-03-01T21:53:41;57.05;;;15.13;;
1523;SDS011;755;53.658;10.118;2023-03-01T22:03:43;78.43;;;15.88;;
1523;SDS011;755;53.658;10.118;2023-03-01T22:13:48;48.63;;;13.85;;
1523;SDS011;755;53.658;10.118;2023-03-01T22:23:52;51.10;;;14.52;;
1523;SDS011;755;53.658;10.118;2023-03-01T22:33:57;74.85;;;12.05;;
1523;SDS011;755;53.658;10.118;2023-03-01T22:44:00;41.65;;;11.95;;
1523;SDS011;755;53.658;10.118;2023-03-01T22:54:04;46.50;;;10.68;;
1523;SDS011;755;53.658;10.118;2023-03-01T23:04:06;48.80;;;11.25;;
1523;SDS011;755;53.658;10.118;2023-03-01T23:14:10;40.40;;;12.20;;
1523;SDS011;755;53.658;10.118;2023-03-01T23:24:12;30.23;;;11.48;;
1523;SDS011;755;53.658;10.118;2023-03-01T23:34:16;47.33;;;12.05;;
1523;SDS011;755;53.658;10.118;2023-03-01T23:44:20;33.47;;;11.23;;
1523;SDS011;755;53.658;10.118;2023-03-01T23:54:24;50.50;;;10.63;;
